sensor_id;sensor_type;location;lat;lon;timestamp;P1;durP1;ratioP1;P2;durP2;ratioP2
7495;SDS011;3789;47.064;15.482;2022-08-01T00:01:25;3.75;;;3.45;;
7495;SDS011;3789;47.064;15.482;2022-08-01T00:03:53;3.80;;;3.50;;
7495;SDS011;3789;47.064;15.482;2022-08-01T00:06:22;4.07;;;3.67;;
7495;SDS011;3789;47.064;15.482;2022-08-01T00:08:59;3.72;;;3.42;;
7495;SDS011;3789;47.064;15.482;2022-08-01T00:11:26;4.03;;;3.72;;
7495;SDS011;3789;47.064;15.482;2022-08-01T00:14:04;3.97;;;3.60;;
7495;SDS011;3789;47.064;15.482;2022-08-01T00:16:41;4.22;;;3.60;;
7495;SDS011;3789;47.064;15.482;2022-08-01T00:19:09;3.60;;;3.30;;
7495;SDS011;3789;47.064;15.482;2022-08-01T00:21:40;4.28;;;3.88;;
7495;SDS011;3789;47.064;15.482;2022-08-01T00:24:17;4.45;;;4.05;;
7495;SDS011;3789;47.064;15.482;2022-08-01T00:26:46;4.10;;;3.80;;
7495;SDS011;3789;47.064;15.482;2022-08-01T00:29:16;3.72;;;3.42;;
7495;SDS011;3789;47.064;15.482;2022-08-01T00:32:05;4.05;;;3.75;;
7495;SDS011;3789;47.064;15.482;2022-08-01T00:34:40;4.18;;;3.78;;
7495;SDS011;3789;47.064;15.482;2022-08-01T00:37:08;4.55;;;3.72;;
7495;SDS011;3789;47.064;15.482;2022-08-01T00:39:42;3.33;;;3.13;;
7495;SDS011;3789;47.064;15.482;2022-08-01T00:42:11;4.10;;;3.70;;
7495;SDS011;3789;47.064;15.482;2022-08-01T00:44:41;3.90;;;3.60;;
7495;SDS011;3789;47.064;15.482;2022-08-01T00:47:09;4.72;;;3.58;;
7495;SDS011;3789;47.064;15.482;2022-08-01T00:49:41;3.83;;;3.53;;
7495;SDS011;3789;47.064;15.482;2022-08-01T00:52:09;3.80;;;3.50;;
7495;SDS011;3789;47.064;15.482;2022-08-01T00:54:39;3.42;;;3.22;;
7495;SDS011;3789;47.064;15.482;2022-08-01T00:57:09;3.78;;;3.47;;
7495;SDS011;3789;47.064;15.482;2022-08-01T01:00:06;4.22;;;3.50;;
7495;SDS011;3789;47.064;15.482;2022-08-01T01:02:43;3.80;;;3.50;;
7495;SDS011;3789;47.064;15.482;2022-08-01T01:05:16;3.72;;;3.42;;
7495;SDS011;3789;47.064;15.482;2022-08-01T01:08:04;4.07;;;3.30;;
7495;SDS011;3789;47.064;15.482;2022-08-01T01:10:58;3.88;;;3.58;;
7495;SDS011;3789;47.064;15.482;2022-08-01T01:13:43;3.72;;;3.42;;
7495;SDS011;3789;47.064;15.482;2022-08-01T01:16:18;3.63;;;3.33;;
7495;SDS011;3789;47.064;15.482;2022-08-01T01:18:53;4.63;;;3.40;;
7495;SDS011;3789;47.064;15.482;2022-08-01T01:25:09;4.07;;;3.75;;
7495;SDS011;3789;47.064;15.482;2022-08-01T01:27:55;3.95;;;3.65;;
7495;SDS011;3789;47.064;15.482;2022-08-01T01:30:33;4.13;;;3.72;;
7495;SDS011;3789;47.064;15.482;2022-08-01T01:33:02;3.80;;;3.50;;
7495;SDS011;3789;47.064;15.482;2022-08-01T01:35:34;4.10;;;3.80;;
7495;SDS011;3789;47.064;15.482;2022-08-01T01:38:10;4.28;;;3.90;;
7495;SDS011;3789;47.064;15.482;2022-08-01T01:40:45;3.90;;;3.60;;
7495;SDS011;3789;47.064;15.482;2022-08-01T01:43:15;5.25;;;4.10;;
7495;SDS011;3789;47.064;15.482;2022-08-01T01:45:44;3.70;;;3.40;;
7495;SDS011;3789;47.064;15.482;2022-08-01T01:48:14;3.55;;;3.28;;
7495;SDS011;3789;47.064;15.482;2022-08-01T01:50:48;3.78;;;3.47;;
7495;SDS011;3789;47.064;15.482;2022-08-01T01:53:21;3.60;;;3.30;;
7495;SDS011;3789;47.064;15.482;2022-08-01T01:55:50;4.10;;;3.70;;
7495;SDS011;3789;47.064;15.482;2022-08-01T01:58:21;3.70;;;3.30;;
7495;SDS011;3789;47.064;15.482;2022-08-01T02:00:51;3.72;;;3.42;;
7495;SDS011;3789;47.064;15.482;2022-08-01T02:03:19;3.90;;;3.60;;
7495;SDS011;3789;47.064;15.482;2022-08-01T02:05:48;4.22;;;3.83;;
7495;SDS011;3789;47.064;15.482;2022-08-01T02:08:18;3.95;;;3.65;;
7495;SDS011;3789;47.064;15.482;2022-08-01T02:10:46;3.70;;;3.40;;
7495;SDS011;3789;47.064;15.482;2022-08-01T02:13:33;3.95;;;3.55;;
7495;SDS011;3789;47.064;15.482;2022-08-01T02:16:03;3.60;;;3.30;;
7495;SDS011;3789;47.064;15.482;2022-08-01T02:18:32;4.82;;;3.38;;
7495;SDS011;3789;47.064;15.482;2022-08-01T02:20:59;3.83;;;3.53;;
7495;SDS011;3789;47.064;15.482;2022-08-01T02:23:31;5.03;;;3.60;;
7495;SDS011;3789;47.064;15.482;2022-08-01T02:26:00;3.67;;;3.38;;
7495;SDS011;3789;47.064;15.482;2022-08-01T02:28:38;3.70;;;3.40;;
7495;SDS011;3789;47.064;15.482;2022-08-01T02:31:13;3.72;;;3.42;;
7495;SDS011;3789;47.064;15.482;2022-08-01T02:33:43;3.60;;;3.28;;
7495;SDS011;3789;47.064;15.482;2022-08-01T02:36:14;3.80;;;3.50;;
7495;SDS011;3789;47.064;15.482;2022-08-01T02:38:56;4.07;;;3.78;;
7495;SDS011;3789;47.064;15.482;2022-08-01T02:41:27;3.85;;;3.55;;
7495;SDS011;3789;47.064;15.482;2022-08-01T02:43:56;3.38;;;3.10;;
7495;SDS011;3789;47.064;15.482;2022-08-01T02:46:35;3.75;;;3.33;;
7495;SDS011;3789;47.064;15.482;2022-08-01T02:49:05;3.50;;;3.20;;
7495;SDS011;3789;47.064;15.482;2022-08-01T02:51:35;3.45;;;3.15;;
7495;SDS011;3789;47.064;15.482;2022-08-01T02:54:04;3.83;;;3.40;;
7495;SDS011;3789;47.064;15.482;2022-08-01T02:56:33;3.97;;;3.20;;
7495;SDS011;3789;47.064;15.482;2022-08-01T02:59:06;4.25;;;3.88;;
7495;SDS011;3789;47.064;15.482;2022-08-01T03:01:38;4.53;;;3.80;;
7495;SDS011;3789;47.064;15.482;2022-08-01T03:04:08;3.67;;;3.38;;
7495;SDS011;3789;47.064;15.482;2022-08-01T03:06:36;3.88;;;3.58;;
7495;SDS011;3789;47.064;15.482;2022-08-01T03:09:07;3.47;;;3.13;;
7495;SDS011;3789;47.064;15.482;2022-08-01T03:11:35;3.70;;;3.40;;
7495;SDS011;3789;47.064;15.482;2022-08-01T03:14:06;4.05;;;3.75;;
7495;SDS011;3789;47.064;15.482;2022-08-01T03:16:35;3.95;;;3.65;;
7495;SDS011;3789;47.064;15.482;2022-08-01T03:19:05;4.07;;;3.78;;
7495;SDS011;3789;47.064;15.482;2022-08-01T03:21:35;4.05;;;3.72;;
7495;SDS011;3789;47.064;15.482;2022-08-01T03:24:04;4.00;;;3.70;;
7495;SDS011;3789;47.064;15.482;2022-08-01T03:26:34;4.13;;;3.58;;
7495;SDS011;3789;47.064;15.482;2022-08-01T03:29:15;3.90;;;3.60;;
7495;SDS011;3789;47.064;15.482;2022-08-01T03:31:46;3.70;;;3.40;;
7495;SDS011;3789;47.064;15.482;2022-08-01T03:34:15;3.35;;;3.05;;
7495;SDS011;3789;47.064;15.482;2022-08-01T03:36:46;3.92;;;3.58;;
7495;SDS011;3789;47.064;15.482;2022-08-01T03:39:25;4.30;;;3.80;;
7495;SDS011;3789;47.064;15.482;2022-08-01T03:41:59;4.25;;;3.83;;
7495;SDS011;3789;47.064;15.482;2022-08-01T03:44:50;3.92;;;3.63;;
7495;SDS011;3789;47.064;15.482;2022-08-01T03:47:21;3.97;;;3.60;;
7495;SDS011;3789;47.064;15.482;2022-08-01T03:49:53;4.18;;;3.78;;
7495;SDS011;3789;47.064;15.482;2022-08-01T03:52:22;3.83;;;3.47;;
7495;SDS011;3789;47.064;15.482;2022-08-01T03:54:54;4.20;;;3.80;;
7495;SDS011;3789;47.064;15.482;2022-08-01T03:57:22;4.15;;;3.75;;
7495;SDS011;3789;47.064;15.482;2022-08-01T04:00:03;4.38;;;3.78;;
7495;SDS011;3789;47.064;15.482;2022-08-01T04:02:35;3.60;;;3.40;;
7495;SDS011;3789;47.064;15.482;2022-08-01T04:05:03;4.20;;;3.47;;
7495;SDS011;3789;47.064;15.482;2022-08-01T04:07:31;3.60;;;3.30;;
7495;SDS011;3789;47.064;15.482;2022-08-01T04:10:03;4.00;;;3.70;;
7495;SDS011;3789;47.064;15.482;2022-08-01T04:12:30;4.32;;;3.92;;
7495;SDS011;3789;47.064;15.482;2022-08-01T04:14:59;4.20;;;3.90;;
7495;SDS011;3789;47.064;15.482;2022-08-01T04:17:26;4.15;;;3.85;;
7495;SDS011;3789;47.064;15.482;2022-08-01T04:19:53;3.90;;;3.60;;
7495;SDS011;3789;47.064;15.482;2022-08-01T04:22:20;4.05;;;3.75;;
7495;SDS011;3789;47.064;15.482;2022-08-01T04:24:49;4.55;;;3.92;;
7495;SDS011;3789;47.064;15.482;2022-08-01T04:27:29;4.32;;;3.95;;
7495;SDS011;3789;47.064;15.482;2022-08-01T04:30:18;3.97;;;3.55;;
7495;SDS011;3789;47.064;15.482;2022-08-01T04:32:57;4.38;;;3.95;;
7495;SDS011;3789;47.064;15.482;2022-08-01T04:35:27;4.47;;;4.10;;
7495;SDS011;3789;47.064;15.482;2022-08-01T04:38:21;4.50;;;4.10;;
7495;SDS011;3789;47.064;15.482;2022-08-01T04:40:54;4.00;;;3.70;;
7495;SDS011;3789;47.064;15.482;2022-08-01T04:43:22;4.28;;;3.95;;
7495;SDS011;3789;47.064;15.482;2022-08-01T04:45:50;4.10;;;3.70;;
7495;SDS011;3789;47.064;15.482;2022-08-01T04:48:18;4.30;;;3.90;;
7495;SDS011;3789;47.064;15.482;2022-08-01T04:50:48;4.65;;;4.25;;
7495;SDS011;3789;47.064;15.482;2022-08-01T04:53:18;4.07;;;3.67;;
7495;SDS011;3789;47.064;15.482;2022-08-01T04:55:48;3.90;;;3.60;;
7495;SDS011;3789;47.064;15.482;2022-08-01T04:58:15;4.18;;;3.78;;
7495;SDS011;3789;47.064;15.482;2022-08-01T05:00:44;4.50;;;4.10;;
7495;SDS011;3789;47.064;15.482;2022-08-01T05:03:15;6.68;;;3.95;;
7495;SDS011;3789;47.064;15.482;2022-08-01T05:05:42;4.50;;;4.10;;
7495;SDS011;3789;47.064;15.482;2022-08-01T05:08:09;4.30;;;4.00;;
7495;SDS011;3789;47.064;15.482;2022-08-01T05:10:36;4.00;;;3.70;;
7495;SDS011;3789;47.064;15.482;2022-08-01T05:13:03;4.63;;;4.13;;
7495;SDS011;3789;47.064;15.482;2022-08-01T05:15:34;4.95;;;4.13;;
7495;SDS011;3789;47.064;15.482;2022-08-01T05:18:03;3.90;;;3.60;;
7495;SDS011;3789;47.064;15.482;2022-08-01T05:20:33;4.38;;;4.07;;
7495;SDS011;3789;47.064;15.482;2022-08-01T05:23:00;5.47;;;4.20;;
7495;SDS011;3789;47.064;15.482;2022-08-01T05:25:27;5.25;;;3.97;;
7495;SDS011;3789;47.064;15.482;2022-08-01T05:28:14;3.80;;;3.50;;
7495;SDS011;3789;47.064;15.482;2022-08-01T05:30:44;4.43;;;4.13;;
7495;SDS011;3789;47.064;15.482;2022-08-01T05:33:12;4.07;;;3.60;;
7495;SDS011;3789;47.064;15.482;2022-08-01T05:35:39;4.70;;;4.30;;
7495;SDS011;3789;47.064;15.482;2022-08-01T05:38:14;4.72;;;4.32;;
7495;SDS011;3789;47.064;15.482;2022-08-01T05:40:42;4.15;;;3.85;;
7495;SDS011;3789;47.064;15.482;2022-08-01T05:43:09;10.07;;;4.05;;
7495;SDS011;3789;47.064;15.482;2022-08-01T05:45:36;4.68;;;4.28;;
7495;SDS011;3789;47.064;15.482;2022-08-01T05:48:03;4.45;;;4.05;;
7495;SDS011;3789;47.064;15.482;2022-08-01T05:50:31;5.00;;;4.60;;
7495;SDS011;3789;47.064;15.482;2022-08-01T05:53:00;4.82;;;4.43;;
7495;SDS011;3789;47.064;15.482;2022-08-01T05:55:27;4.28;;;3.97;;
7495;SDS011;3789;47.064;15.482;2022-08-01T05:57:54;5.32;;;3.92;;
7495;SDS011;3789;47.064;15.482;2022-08-01T06:00:21;4.68;;;4.28;;
7495;SDS011;3789;47.064;15.482;2022-08-01T06:02:49;4.88;;;4.00;;
7495;SDS011;3789;47.064;15.482;2022-08-01T06:05:16;4.80;;;4.30;;
7495;SDS011;3789;47.064;15.482;2022-08-01T06:07:43;5.05;;;4.22;;
7495;SDS011;3789;47.064;15.482;2022-08-01T06:10:10;4.90;;;4.50;;
7495;SDS011;3789;47.064;15.482;2022-08-01T06:12:37;4.00;;;3.70;;
7495;SDS011;3789;47.064;15.482;2022-08-01T06:15:05;4.97;;;4.03;;
7495;SDS011;3789;47.064;15.482;2022-08-01T06:17:33;4.05;;;3.65;;
7495;SDS011;3789;47.064;15.482;2022-08-01T06:20:00;4.57;;;3.78;;
7495;SDS011;3789;47.064;15.482;2022-08-01T06:22:28;5.20;;;4.30;;
7495;SDS011;3789;47.064;15.482;2022-08-01T06:24:56;4.38;;;4.07;;
7495;SDS011;3789;47.064;15.482;2022-08-01T06:27:24;4.85;;;4.43;;
7495;SDS011;3789;47.064;15.482;2022-08-01T06:29:53;4.55;;;4.15;;
7495;SDS011;3789;47.064;15.482;2022-08-01T06:32:21;5.13;;;4.22;;
7495;SDS011;3789;47.064;15.482;2022-08-01T06:34:53;4.50;;;4.10;;
7495;SDS011;3789;47.064;15.482;2022-08-01T06:37:21;4.38;;;4.07;;
7495;SDS011;3789;47.064;15.482;2022-08-01T06:39:49;5.07;;;4.35;;
7495;SDS011;3789;47.064;15.482;2022-08-01T06:42:16;4.43;;;4.10;;
7495;SDS011;3789;47.064;15.482;2022-08-01T06:44:44;6.05;;;4.03;;
7495;SDS011;3789;47.064;15.482;2022-08-01T06:47:12;4.70;;;4.30;;
7495;SDS011;3789;47.064;15.482;2022-08-01T06:49:48;7.35;;;4.40;;
7495;SDS011;3789;47.064;15.482;2022-08-01T06:52:15;4.25;;;3.95;;
7495;SDS011;3789;47.064;15.482;2022-08-01T06:54:43;4.75;;;4.35;;
7495;SDS011;3789;47.064;15.482;2022-08-01T06:57:10;4.70;;;4.30;;
7495;SDS011;3789;47.064;15.482;2022-08-01T06:59:37;4.70;;;4.30;;
7495;SDS011;3789;47.064;15.482;2022-08-01T07:02:04;4.63;;;4.20;;
7495;SDS011;3789;47.064;15.482;2022-08-01T07:04:33;4.70;;;4.20;;
7495;SDS011;3789;47.064;15.482;2022-08-01T07:07:01;4.65;;;4.25;;
7495;SDS011;3789;47.064;15.482;2022-08-01T07:09:28;4.57;;;4.18;;
7495;SDS011;3789;47.064;15.482;2022-08-01T07:11:56;5.20;;;4.70;;
7495;SDS011;3789;47.064;15.482;2022-08-01T07:14:23;5.30;;;4.25;;
7495;SDS011;3789;47.064;15.482;2022-08-01T07:16:50;4.57;;;4.25;;
7495;SDS011;3789;47.064;15.482;2022-08-01T07:19:18;5.50;;;4.50;;
7495;SDS011;3789;47.064;15.482;2022-08-01T07:21:45;5.82;;;4.53;;
7495;SDS011;3789;47.064;15.482;2022-08-01T07:24:16;5.03;;;4.63;;
7495;SDS011;3789;47.064;15.482;2022-08-01T07:26:46;4.50;;;4.20;;
7495;SDS011;3789;47.064;15.482;2022-08-01T07:29:23;4.65;;;4.32;;
7495;SDS011;3789;47.064;15.482;2022-08-01T07:31:51;5.57;;;4.30;;
7495;SDS011;3789;47.064;15.482;2022-08-01T07:34:20;7.38;;;4.60;;
7495;SDS011;3789;47.064;15.482;2022-08-01T07:36:48;4.68;;;4.22;;
7495;SDS011;3789;47.064;15.482;2022-08-01T07:39:15;7.00;;;5.13;;
7495;SDS011;3789;47.064;15.482;2022-08-01T07:41:43;5.82;;;5.10;;
7495;SDS011;3789;47.064;15.482;2022-08-01T07:44:30;5.97;;;5.07;;
7495;SDS011;3789;47.064;15.482;2022-08-01T07:46:57;6.72;;;4.70;;
7495;SDS011;3789;47.064;15.482;2022-08-01T07:49:24;4.85;;;4.22;;
7495;SDS011;3789;47.064;15.482;2022-08-01T07:51:51;4.47;;;4.07;;
7495;SDS011;3789;47.064;15.482;2022-08-01T07:54:30;5.20;;;4.65;;
7495;SDS011;3789;47.064;15.482;2022-08-01T07:57:00;4.25;;;3.85;;
7495;SDS011;3789;47.064;15.482;2022-08-01T07:59:28;5.63;;;4.10;;
7495;SDS011;3789;47.064;15.482;2022-08-01T08:01:55;4.60;;;4.20;;
7495;SDS011;3789;47.064;15.482;2022-08-01T08:04:22;4.70;;;4.30;;
7495;SDS011;3789;47.064;15.482;2022-08-01T08:06:49;4.80;;;4.30;;
7495;SDS011;3789;47.064;15.482;2022-08-01T08:09:17;4.97;;;4.40;;
7495;SDS011;3789;47.064;15.482;2022-08-01T08:11:44;4.35;;;3.95;;
7495;SDS011;3789;47.064;15.482;2022-08-01T08:14:14;5.53;;;4.40;;
7495;SDS011;3789;47.064;15.482;2022-08-01T08:16:43;4.85;;;4.45;;
7495;SDS011;3789;47.064;15.482;2022-08-01T08:19:10;5.63;;;4.72;;
7495;SDS011;3789;47.064;15.482;2022-08-01T08:21:38;5.47;;;4.47;;
7495;SDS011;3789;47.064;15.482;2022-08-01T08:24:05;5.10;;;4.70;;
7495;SDS011;3789;47.064;15.482;2022-08-01T08:26:58;6.18;;;5.00;;
7495;SDS011;3789;47.064;15.482;2022-08-01T08:29:27;5.43;;;4.93;;
7495;SDS011;3789;47.064;15.482;2022-08-01T08:31:58;5.22;;;4.40;;
7495;SDS011;3789;47.064;15.482;2022-08-01T08:34:27;5.05;;;4.63;;
7495;SDS011;3789;47.064;15.482;2022-08-01T08:36:55;4.47;;;4.07;;
7495;SDS011;3789;47.064;15.482;2022-08-01T08:39:24;5.57;;;4.55;;
7495;SDS011;3789;47.064;15.482;2022-08-01T08:41:52;5.25;;;4.75;;
7495;SDS011;3789;47.064;15.482;2022-08-01T08:44:19;5.20;;;4.68;;
7495;SDS011;3789;47.064;15.482;2022-08-01T08:46:48;5.28;;;4.88;;
7495;SDS011;3789;47.064;15.482;2022-08-01T08:49:20;4.13;;;3.83;;
7495;SDS011;3789;47.064;15.482;2022-08-01T08:51:50;5.10;;;4.10;;
7495;SDS011;3789;47.064;15.482;2022-08-01T08:54:20;4.43;;;4.03;;
7495;SDS011;3789;47.064;15.482;2022-08-01T08:56:57;4.70;;;4.30;;
7495;SDS011;3789;47.064;15.482;2022-08-01T08:59:25;4.70;;;4.35;;
7495;SDS011;3789;47.064;15.482;2022-08-01T09:01:53;4.00;;;3.70;;
7495;SDS011;3789;47.064;15.482;2022-08-01T09:04:21;3.70;;;3.40;;
7495;SDS011;3789;47.064;15.482;2022-08-01T09:06:51;3.80;;;3.50;;
7495;SDS011;3789;47.064;15.482;2022-08-01T09:09:19;4.30;;;3.90;;
7495;SDS011;3789;47.064;15.482;2022-08-01T09:11:46;4.50;;;3.67;;
7495;SDS011;3789;47.064;15.482;2022-08-01T09:14:23;5.40;;;3.65;;
7495;SDS011;3789;47.064;15.482;2022-08-01T09:17:04;3.63;;;3.30;;
7495;SDS011;3789;47.064;15.482;2022-08-01T09:19:41;4.07;;;3.75;;
7495;SDS011;3789;47.064;15.482;2022-08-01T09:22:10;5.43;;;3.72;;
7495;SDS011;3789;47.064;15.482;2022-08-01T09:24:39;3.78;;;3.13;;
7495;SDS011;3789;47.064;15.482;2022-08-01T09:27:18;3.60;;;3.13;;
7495;SDS011;3789;47.064;15.482;2022-08-01T09:29:50;4.55;;;3.72;;
7495;SDS011;3789;47.064;15.482;2022-08-01T09:32:27;4.53;;;3.47;;
7495;SDS011;3789;47.064;15.482;2022-08-01T09:38:18;4.30;;;3.97;;
7495;SDS011;3789;47.064;15.482;2022-08-01T09:40:51;5.13;;;4.25;;
7495;SDS011;3789;47.064;15.482;2022-08-01T09:43:24;5.72;;;3.67;;
7495;SDS011;3789;47.064;15.482;2022-08-01T09:45:56;4.20;;;3.47;;
7495;SDS011;3789;47.064;15.482;2022-08-01T09:48:24;3.20;;;2.90;;
7495;SDS011;3789;47.064;15.482;2022-08-01T09:50:55;3.47;;;3.17;;
7495;SDS011;3789;47.064;15.482;2022-08-01T09:53:44;3.20;;;2.90;;
7495;SDS011;3789;47.064;15.482;2022-08-01T09:56:23;3.13;;;2.92;;
7495;SDS011;3789;47.064;15.482;2022-08-01T10:01:39;3.15;;;2.85;;
7495;SDS011;3789;47.064;15.482;2022-08-01T10:04:18;3.78;;;3.40;;
7495;SDS011;3789;47.064;15.482;2022-08-01T10:06:49;3.20;;;2.97;;
7495;SDS011;3789;47.064;15.482;2022-08-01T10:09:28;5.65;;;3.30;;
7495;SDS011;3789;47.064;15.482;2022-08-01T10:12:08;3.38;;;3.08;;
7495;SDS011;3789;47.064;15.482;2022-08-01T10:14:43;3.85;;;3.33;;
7495;SDS011;3789;47.064;15.482;2022-08-01T10:17:31;3.20;;;2.90;;
7495;SDS011;3789;47.064;15.482;2022-08-01T10:20:19;3.85;;;3.40;;
7495;SDS011;3789;47.064;15.482;2022-08-01T10:22:59;3.15;;;2.85;;
7495;SDS011;3789;47.064;15.482;2022-08-01T10:25:37;3.25;;;2.95;;
7495;SDS011;3789;47.064;15.482;2022-08-01T10:28:30;4.70;;;3.17;;
7495;SDS011;3789;47.064;15.482;2022-08-01T10:31:05;3.33;;;3.13;;
7495;SDS011;3789;47.064;15.482;2022-08-01T10:33:44;3.63;;;3.00;;
7495;SDS011;3789;47.064;15.482;2022-08-01T10:36:20;3.63;;;3.33;;
7495;SDS011;3789;47.064;15.482;2022-08-01T10:38:53;3.30;;;3.00;;
7495;SDS011;3789;47.064;15.482;2022-08-01T10:41:26;3.55;;;3.25;;
7495;SDS011;3789;47.064;15.482;2022-08-01T10:44:07;4.68;;;3.60;;
7495;SDS011;3789;47.064;15.482;2022-08-01T10:46:38;4.20;;;3.63;;
7495;SDS011;3789;47.064;15.482;2022-08-01T10:49:13;3.63;;;3.33;;
7495;SDS011;3789;47.064;15.482;2022-08-01T10:51:46;3.85;;;3.35;;
7495;SDS011;3789;47.064;15.482;2022-08-01T10:54:20;4.32;;;3.92;;
7495;SDS011;3789;47.064;15.482;2022-08-01T10:56:56;3.70;;;3.40;;
7495;SDS011;3789;47.064;15.482;2022-08-01T10:59:28;3.47;;;3.17;;
7495;SDS011;3789;47.064;15.482;2022-08-01T11:02:25;3.55;;;3.20;;
7495;SDS011;3789;47.064;15.482;2022-08-01T11:05:19;3.70;;;3.40;;
7495;SDS011;3789;47.064;15.482;2022-08-01T11:07:52;4.28;;;3.00;;
7495;SDS011;3789;47.064;15.482;2022-08-01T11:12:59;3.72;;;3.42;;
7495;SDS011;3789;47.064;15.482;2022-08-01T11:15:29;3.42;;;3.13;;
7495;SDS011;3789;47.064;15.482;2022-08-01T11:17:57;3.90;;;2.85;;
7495;SDS011;3789;47.064;15.482;2022-08-01T11:20:32;3.13;;;2.83;;
7495;SDS011;3789;47.064;15.482;2022-08-01T11:28:37;3.40;;;2.85;;
7495;SDS011;3789;47.064;15.482;2022-08-01T11:31:34;3.17;;;2.88;;
7495;SDS011;3789;47.064;15.482;2022-08-01T11:34:04;2.40;;;2.20;;
7495;SDS011;3789;47.064;15.482;2022-08-01T11:36:35;2.75;;;2.55;;
7495;SDS011;3789;47.064;15.482;2022-08-01T11:39:27;3.08;;;2.80;;
7495;SDS011;3789;47.064;15.482;2022-08-01T11:41:56;3.20;;;2.50;;
7495;SDS011;3789;47.064;15.482;2022-08-01T11:44:53;3.35;;;2.47;;
7495;SDS011;3789;47.064;15.482;2022-08-01T11:50:35;2.33;;;2.13;;
7495;SDS011;3789;47.064;15.482;2022-08-01T11:53:24;2.38;;;2.17;;
7495;SDS011;3789;47.064;15.482;2022-08-01T11:55:54;2.40;;;2.20;;
7495;SDS011;3789;47.064;15.482;2022-08-01T11:58:32;1.98;;;1.88;;
7495;SDS011;3789;47.064;15.482;2022-08-01T12:01:01;1.83;;;1.73;;
7495;SDS011;3789;47.064;15.482;2022-08-01T12:03:33;2.00;;;1.80;;
7495;SDS011;3789;47.064;15.482;2022-08-01T12:06:04;1.75;;;1.65;;
7495;SDS011;3789;47.064;15.482;2022-08-01T12:08:38;1.77;;;1.67;;
7495;SDS011;3789;47.064;15.482;2022-08-01T12:11:07;2.45;;;1.92;;
7495;SDS011;3789;47.064;15.482;2022-08-01T12:13:42;2.97;;;1.65;;
7495;SDS011;3789;47.064;15.482;2022-08-01T12:16:11;1.88;;;1.77;;
7495;SDS011;3789;47.064;15.482;2022-08-01T12:18:41;2.10;;;1.85;;
7495;SDS011;3789;47.064;15.482;2022-08-01T12:21:28;1.90;;;1.60;;
7495;SDS011;3789;47.064;15.482;2022-08-01T12:24:02;2.20;;;1.75;;
7495;SDS011;3789;47.064;15.482;2022-08-01T12:26:41;3.17;;;1.80;;
7495;SDS011;3789;47.064;15.482;2022-08-01T12:29:21;2.08;;;1.88;;
7495;SDS011;3789;47.064;15.482;2022-08-01T12:32:26;1.90;;;1.70;;
7495;SDS011;3789;47.064;15.482;2022-08-01T12:35:10;1.70;;;1.60;;
7495;SDS011;3789;47.064;15.482;2022-08-01T12:38:02;2.55;;;1.50;;
7495;SDS011;3789;47.064;15.482;2022-08-01T12:40:50;1.85;;;1.75;;
7495;SDS011;3789;47.064;15.482;2022-08-01T12:43:21;2.10;;;1.90;;
7495;SDS011;3789;47.064;15.482;2022-08-01T12:45:55;2.53;;;1.55;;
7495;SDS011;3789;47.064;15.482;2022-08-01T12:48:26;1.67;;;1.58;;
7495;SDS011;3789;47.064;15.482;2022-08-01T12:50:57;1.70;;;1.60;;
7495;SDS011;3789;47.064;15.482;2022-08-01T12:53:32;1.98;;;1.83;;
7495;SDS011;3789;47.064;15.482;2022-08-01T12:56:08;1.75;;;1.65;;
7495;SDS011;3789;47.064;15.482;2022-08-01T12:58:49;3.17;;;1.88;;
7495;SDS011;3789;47.064;15.482;2022-08-01T13:01:34;2.50;;;1.90;;
7495;SDS011;3789;47.064;15.482;2022-08-01T13:04:03;1.63;;;1.52;;
7495;SDS011;3789;47.064;15.482;2022-08-01T13:06:33;3.10;;;1.77;;
7495;SDS011;3789;47.064;15.482;2022-08-01T13:09:06;1.88;;;1.77;;
7495;SDS011;3789;47.064;15.482;2022-08-01T13:11:41;1.60;;;1.50;;
7495;SDS011;3789;47.064;15.482;2022-08-01T13:14:31;1.90;;;1.80;;
7495;SDS011;3789;47.064;15.482;2022-08-01T13:17:07;1.73;;;1.58;;
7495;SDS011;3789;47.064;15.482;2022-08-01T13:19:47;2.83;;;1.70;;
7495;SDS011;3789;47.064;15.482;2022-08-01T13:22:35;1.58;;;1.48;;
7495;SDS011;3789;47.064;15.482;2022-08-01T13:25:15;1.85;;;1.50;;
7495;SDS011;3789;47.064;15.482;2022-08-01T13:28:13;2.65;;;1.63;;
7495;SDS011;3789;47.064;15.482;2022-08-01T13:30:57;2.63;;;1.60;;
7495;SDS011;3789;47.064;15.482;2022-08-01T13:33:39;1.70;;;1.60;;
7495;SDS011;3789;47.064;15.482;2022-08-01T13:36:27;1.73;;;1.58;;
7495;SDS011;3789;47.064;15.482;2022-08-01T13:38:57;4.35;;;1.60;;
7495;SDS011;3789;47.064;15.482;2022-08-01T13:41:47;1.70;;;1.60;;
7495;SDS011;3789;47.064;15.482;2022-08-01T13:44:16;1.58;;;1.48;;
7495;SDS011;3789;47.064;15.482;2022-08-01T13:46:44;2.38;;;1.70;;
7495;SDS011;3789;47.064;15.482;2022-08-01T13:49:17;2.42;;;1.75;;
7495;SDS011;3789;47.064;15.482;2022-08-01T13:51:49;2.25;;;1.63;;
7495;SDS011;3789;47.064;15.482;2022-08-01T13:54:18;1.80;;;1.70;;
7495;SDS011;3789;47.064;15.482;2022-08-01T13:56:46;3.38;;;1.70;;
7495;SDS011;3789;47.064;15.482;2022-08-01T13:59:15;2.80;;;1.50;;
7495;SDS011;3789;47.064;15.482;2022-08-01T14:01:43;2.28;;;1.50;;
7495;SDS011;3789;47.064;15.482;2022-08-01T14:04:15;1.58;;;1.48;;
7495;SDS011;3789;47.064;15.482;2022-08-01T14:06:43;2.33;;;1.77;;
7495;SDS011;3789;47.064;15.482;2022-08-01T14:09:11;1.70;;;1.60;;
7495;SDS011;3789;47.064;15.482;2022-08-01T14:11:43;2.72;;;1.55;;
7495;SDS011;3789;47.064;15.482;2022-08-01T14:14:11;1.80;;;1.35;;
7495;SDS011;3789;47.064;15.482;2022-08-01T14:16:41;4.25;;;1.73;;
7495;SDS011;3789;47.064;15.482;2022-08-01T14:19:13;1.67;;;1.40;;
7495;SDS011;3789;47.064;15.482;2022-08-01T14:21:45;1.40;;;1.30;;
7495;SDS011;3789;47.064;15.482;2022-08-01T14:24:14;1.60;;;1.50;;
7495;SDS011;3789;47.064;15.482;2022-08-01T14:26:46;1.50;;;1.40;;
7495;SDS011;3789;47.064;15.482;2022-08-01T14:29:17;1.60;;;1.50;;
7495;SDS011;3789;47.064;15.482;2022-08-01T14:31:44;1.58;;;1.48;;
7495;SDS011;3789;47.064;15.482;2022-08-01T14:34:15;1.63;;;1.52;;
7495;SDS011;3789;47.064;15.482;2022-08-01T14:36:46;2.80;;;1.70;;
7495;SDS011;3789;47.064;15.482;2022-08-01T14:39:16;2.97;;;1.83;;
7495;SDS011;3789;47.064;15.482;2022-08-01T14:41:47;1.80;;;1.70;;
7495;SDS011;3789;47.064;15.482;2022-08-01T14:44:15;1.63;;;1.52;;
7495;SDS011;3789;47.064;15.482;2022-08-01T14:46:46;2.40;;;1.70;;
7495;SDS011;3789;47.064;15.482;2022-08-01T14:49:24;2.40;;;1.92;;
7495;SDS011;3789;47.064;15.482;2022-08-01T14:52:02;2.05;;;1.85;;
7495;SDS011;3789;47.064;15.482;2022-08-01T14:54:33;2.78;;;1.60;;
7495;SDS011;3789;47.064;15.482;2022-08-01T14:57:03;2.28;;;1.80;;
7495;SDS011;3789;47.064;15.482;2022-08-01T14:59:33;1.77;;;1.67;;
7495;SDS011;3789;47.064;15.482;2022-08-01T15:02:01;2.10;;;1.77;;
7495;SDS011;3789;47.064;15.482;2022-08-01T15:04:38;2.08;;;1.85;;
7495;SDS011;3789;47.064;15.482;2022-08-01T15:07:08;2.50;;;1.55;;
7495;SDS011;3789;47.064;15.482;2022-08-01T15:09:43;2.08;;;1.80;;
7495;SDS011;3789;47.064;15.482;2022-08-01T15:12:16;2.22;;;2.03;;
7495;SDS011;3789;47.064;15.482;2022-08-01T15:14:46;2.22;;;2.03;;
7495;SDS011;3789;47.064;15.482;2022-08-01T15:17:21;2.53;;;1.88;;
7495;SDS011;3789;47.064;15.482;2022-08-01T15:20:06;2.50;;;2.30;;
7495;SDS011;3789;47.064;15.482;2022-08-01T15:22:35;2.92;;;2.35;;
7495;SDS011;3789;47.064;15.482;2022-08-01T15:25:13;2.60;;;2.40;;
7495;SDS011;3789;47.064;15.482;2022-08-01T15:27:44;2.78;;;2.47;;
7495;SDS011;3789;47.064;15.482;2022-08-01T15:30:14;2.65;;;2.05;;
7495;SDS011;3789;47.064;15.482;2022-08-01T15:32:54;2.53;;;2.25;;
7495;SDS011;3789;47.064;15.482;2022-08-01T15:35:23;2.30;;;2.10;;
7495;SDS011;3789;47.064;15.482;2022-08-01T15:37:52;3.28;;;2.45;;
7495;SDS011;3789;47.064;15.482;2022-08-01T15:40:22;2.90;;;2.45;;
7495;SDS011;3789;47.064;15.482;2022-08-01T15:42:50;2.90;;;2.70;;
7495;SDS011;3789;47.064;15.482;2022-08-01T15:45:20;2.97;;;2.67;;
7495;SDS011;3789;47.064;15.482;2022-08-01T15:48:10;3.00;;;2.70;;
7495;SDS011;3789;47.064;15.482;2022-08-01T15:50:39;2.80;;;2.60;;
7495;SDS011;3789;47.064;15.482;2022-08-01T15:53:06;2.67;;;2.47;;
7495;SDS011;3789;47.064;15.482;2022-08-01T15:55:38;3.00;;;2.70;;